Time;durP1;ratioP1;P1;durP2;ratioP2;P2;SDS_P1;SDS_P2;PMS_P1;PMS_P2;Temp;Humidity;BMP_temperature;BMP_pressure;BME280_temperature;BME280_humidity;BME280_pressure;Samples;Min_cycle;Max_cycle;Signal;HPM_P1;HPM_P2
2024/02/18 00:01:34;;;;;;;;;;;;;;;1.42;100.00;98358.78;110378;1242;59727;-60
2024/02/18 00:04:03;;;;;;;;;;;;;;;1.44;100.00;98362.87;110346;1242;71610;-60
2024/02/18 00:06:32;;;;;;;;;;;;;;;1.46;100.00;98363.52;110410;1239;69177;-60
2024/02/18 00:09:01;;;;;;;;;;;;;;;1.46;100.00;98364.88;110444;1240;69203;-60
2024/02/18 00:11:30;;;;;;;;;;;;;;;1.46;100.00;98363.67;110433;1242;59808;-60
2024/02/18 00:13:59;;;;;;;;;;;;;;;1.47;100.00;98365.54;110471;1242;59599;-60
2024/02/18 00:16:27;;;;;;;;;;;;;;;1.50;100.00;98365.13;110393;1242;71306;-60
2024/02/18 00:18:56;;;;;;;;;;;;;;;1.53;100.00;98366.63;110451;1242;69227;-60
2024/02/18 00:21:28;;;;;;;;;;;;;;;1.57;100.00;98370.14;110385;1242;69854;-60
2024/02/18 00:23:56;;;;;;;;;;;;;;;1.60;100.00;98369.75;110461;1241;59729;-61
2024/02/18 00:26:27;;;;;;;;;;;;;;;1.61;100.00;98377.29;110426;1241;59682;-60
2024/02/18 00:29:15;;;;;;;;;;;;;;;1.62;100.00;98378.80;110431;1243;71337;-60
2024/02/18 00:31:44;;;;;;;;;;;;;;;1.63;100.00;98377.41;110504;1240;69234;-60
2024/02/18 00:34:19;;;;;;;;;;;;;;;1.65;100.00;98378.05;110460;1241;69736;-60
2024/02/18 00:36:50;;;;;;;;;;;;;;;1.70;100.00;98384.82;110559;1242;60159;-60
2024/02/18 00:39:20;;;;;;;;;;;;;;;1.74;100.00;98378.20;110398;1240;59724;-60
2024/02/18 00:41:49;;;;;;;;;;;;;;;1.76;100.00;98384.02;110354;1242;70816;-60
2024/02/18 00:44:19;;;;;;;;;;;;;;;1.75;100.00;98389.19;110363;1249;70299;-60
2024/02/18 00:46:48;;;;;;;;;;;;;;;1.74;100.00;98392.29;110322;1242;70025;-60
2024/02/18 00:49:35;;;;;;;;;;;;;;;1.74;100.00;98400.88;110411;1240;59691;-61
2024/02/18 00:52:04;;;;;;;;;;;;;;;1.74;100.00;98401.05;110512;1249;59694;-61
2024/02/18 00:54:33;;;;;;;;;;;;;;;1.74;100.00;98401.23;110530;1245;71216;-60
2024/02/18 00:57:04;;;;;;;;;;;;;;;1.77;100.00;98401.33;110538;1242;69187;-60
2024/02/18 00:59:33;;;;;;;;;;;;;;;1.82;100.00;98402.60;110525;1240;69250;-60
2024/02/18 01:02:02;;;;;;;;;;;;;;;1.80;100.00;98405.76;110561;1242;59708;-60
2024/02/18 01:04:31;;;;;;;;;;;;;;;1.71;100.00;98407.98;110525;1240;59626;-60
2024/02/18 01:07:00;;;;;;;;;;;;;;;1.66;100.00;98402.61;110506;1242;71947;-60
2024/02/18 01:09:29;;;;;;;;;;;;;;;1.66;100.00;98409.65;110393;1243;69190;-60
2024/02/18 01:11:58;;;;;;;;;;;;;;;1.69;100.00;98409.77;110453;1241;69431;-60
2024/02/18 01:14:27;;;;;;;;;;;;;;;1.73;100.00;98412.09;110403;1242;59792;-60
2024/02/18 01:16:57;;;;;;;;;;;;;;;1.78;100.00;98416.95;110362;1242;59675;-61
2024/02/18 01:19:26;;;;;;;;;;;;;;;1.83;100.00;98416.66;110363;1242;71408;-60
2024/02/18 01:21:55;;;;;;;;;;;;;;;1.89;100.00;98416.88;110529;1241;68765;-60
2024/02/18 01:24:24;;;;;;;;;;;;;;;1.97;100.00;98415.66;110361;1242;68781;-61
2024/02/18 01:26:52;;;;;;;;;;;;;;;2.05;100.00;98415.66;110240;1238;59798;-60
2024/02/18 01:29:22;;;;;;;;;;;;;;;2.10;100.00;98418.33;110415;1241;59946;-61
2024/02/18 01:31:50;;;;;;;;;;;;;;;2.08;100.00;98417.33;110478;1240;72024;-60
2024/02/18 01:34:19;;;;;;;;;;;;;;;2.02;100.00;98418.48;110457;1241;69035;-60
2024/02/18 01:36:48;;;;;;;;;;;;;;;1.94;100.00;98416.09;110406;1241;68790;-60
2024/02/18 01:39:17;;;;;;;;;;;;;;;1.91;100.00;98415.99;110387;1240;60050;-60
2024/02/18 01:41:46;;;;;;;;;;;;;;;1.91;100.00;98415.66;110433;1242;59711;-60
2024/02/18 01:44:15;;;;;;;;;;;;;;;1.93;100.00;98414.05;110528;1238;71368;-60
2024/02/18 01:46:44;;;;;;;;;;;;;;;1.96;100.00;98413.27;110573;1241;69752;-62
2024/02/18 01:49:13;;;;;;;;;;;;;;;2.01;100.00;98409.05;110555;1241;69886;-61
2024/02/18 01:51:43;;;;;;;;;;;;;;;2.06;100.00;98409.11;110456;1241;59719;-61
2024/02/18 01:54:11;;;;;;;;;;;;;;;2.11;100.00;98409.00;110269;1242;59685;-62
2024/02/18 01:56:41;;;;;;;;;;;;;;;2.15;100.00;98401.86;110460;1240;72354;-62
2024/02/18 01:59:10;;;;;;;;;;;;;;;2.18;100.00;98401.11;110272;1243;69174;-60
2024/02/18 02:01:39;;;;;;;;;;;;;;;2.20;100.00;98402.78;110441;1247;68510;-62
2024/02/18 02:04:08;;;;;;;;;;;;;;;2.23;100.00;98398.24;110394;1241;59644;-61
2024/02/18 02:06:38;;;;;;;;;;;;;;;2.25;100.00;98397.65;110456;1240;59686;-61
2024/02/18 02:09:07;;;;;;;;;;;;;;;2.27;100.00;98400.04;110428;1241;72049;-62
2024/02/18 02:11:35;;;;;;;;;;;;;;;2.26;100.00;98400.21;110218;1242;69914;-61
2024/02/18 02:14:04;;;;;;;;;;;;;;;2.24;100.00;98401.32;110484;1241;69261;-61
2024/02/18 02:16:33;;;;;;;;;;;;;;;2.20;100.00;98402.25;110542;1241;59750;-62
2024/02/18 02:19:02;;;;;;;;;;;;;;;2.17;100.00;98403.36;110385;1242;59670;-61
2024/02/18 02:21:31;;;;;;;;;;;;;;;2.14;100.00;98399.14;110496;1243;71337;-62
2024/02/18 02:24:00;;;;;;;;;;;;;;;2.12;100.00;98396.77;110251;1243;69859;-62
2024/02/18 02:26:31;;;;;;;;;;;;;;;2.10;100.00;98393.04;110421;1238;69893;-61
2024/02/18 02:29:00;;;;;;;;;;;;;;;2.09;100.00;98395.83;110463;1242;59736;-62
2024/02/18 02:31:29;;;;;;;;;;;;;;;2.09;100.00;98396.52;110402;1240;59691;-61
2024/02/18 02:33:58;;;;;;;;;;;;;;;2.09;100.00;98392.72;110366;1242;70888;-61
2024/02/18 02:36:27;;;;;;;;;;;;;;;2.10;100.00;98393.55;110386;1242;69222;-61
2024/02/18 02:38:56;;;;;;;;;;;;;;;2.12;100.00;98394.36;110426;1240;69074;-61
2024/02/18 02:41:25;;;;;;;;;;;;;;;2.14;100.00;98391.91;110439;1240;59652;-61
2024/02/18 02:43:54;;;;;;;;;;;;;;;2.16;100.00;98392.89;110441;1242;59665;-61
2024/02/18 02:46:23;;;;;;;;;;;;;;;2.18;100.00;98396.63;110501;1241;71727;-61
2024/02/18 02:48:52;;;;;;;;;;;;;;;2.23;100.00;98396.00;110354;1238;69101;-62
2024/02/18 02:51:21;;;;;;;;;;;;;;;2.28;100.00;98395.00;110359;1241;68791;-62
2024/02/18 02:53:50;;;;;;;;;;;;;;;2.33;100.00;98393.69;110365;1242;59729;-61
2024/02/18 02:56:18;;;;;;;;;;;;;;;2.36;100.00;98395.70;110361;1241;59666;-62
2024/02/18 02:58:48;;;;;;;;;;;;;;;2.38;100.00;98392.01;110384;1242;71395;-61
2024/02/18 03:01:16;;;;;;;;;;;;;;;2.41;100.00;98389.54;110380;1241;69191;-60
2024/02/18 03:03:45;;;;;;;;;;;;;;;2.43;100.00;98386.89;110369;1241;69317;-61
2024/02/18 03:06:14;;;;;;;;;;;;;;;2.47;100.00;98390.76;110407;1242;59662;-61
2024/02/18 03:08:43;;;;;;;;;;;;;;;2.51;100.00;98391.52;110389;1238;59732;-61
2024/02/18 03:11:12;;;;;;;;;;;;;;;2.53;100.00;98390.27;110328;1242;71437;-61
2024/02/18 03:13:41;;;;;;;;;;;;;;;2.56;100.00;98392.77;110358;1242;69830;-62
2024/02/18 03:16:10;;;;;;;;;;;;;;;2.61;100.00;98392.14;110478;1238;69102;-62
2024/02/18 03:18:40;;;;;;;;;;;;;;;2.66;100.00;98396.84;110465;1241;59635;-61
2024/02/18 03:21:09;;;;;;;;;;;;;;;2.69;100.00;98398.13;110487;1241;59691;-61
2024/02/18 03:23:38;;;;;;;;;;;;;;;2.74;100.00;98404.38;110453;1241;72002;-61
2024/02/18 03:26:07;;;;;;;;;;;;;;;2.77;100.00;98405.49;110440;1242;69849;-61
2024/02/18 03:28:36;;;;;;;;;;;;;;;2.80;100.00;98405.05;110395;1238;68904;-62
2024/02/18 03:31:05;;;;;;;;;;;;;;;2.85;100.00;98409.61;110360;1241;59662;-61
2024/02/18 03:33:33;;;;;;;;;;;;;;;2.88;100.00;98412.79;110500;1243;59669;-61
2024/02/18 03:36:02;;;;;;;;;;;;;;;2.93;100.00;98415.09;110418;1240;70949;-61
2024/02/18 03:38:31;;;;;;;;;;;;;;;2.94;100.00;98415.38;110338;1240;69254;-62
2024/02/18 03:41:00;;;;;;;;;;;;;;;2.97;100.00;98414.63;110293;1248;69240;-62
2024/02/18 03:43:30;;;;;;;;;;;;;;;2.97;100.00;98415.84;110384;1238;59731;-61
2024/02/18 03:45:59;;;;;;;;;;;;;;;2.96;100.00;98418.10;110516;1243;59679;-61
2024/02/18 03:48:28;;;;;;;;;;;;;;;2.96;100.00;98416.56;110421;1241;71260;-61
2024/02/18 03:50:58;;;;;;;;;;;;;;;2.96;100.00;98417.75;110361;1241;69044;-62
2024/02/18 03:53:27;;;;;;;;;;;;;;;2.93;100.00;98421.09;110377;1242;69349;-62
2024/02/18 03:55:55;;;;;;;;;;;;;;;2.92;100.00;98418.89;110467;1240;60185;-61
2024/02/18 03:58:24;;;;;;;;;;;;;;;2.88;100.00;98421.92;110441;1241;59657;-61
2024/02/18 04:00:53;;;;;;;;;;;;;;;2.88;100.00;98422.09;110562;1238;71955;-61
2024/02/18 04:03:22;;;;;;;;;;;;;;;2.89;100.00;98422.92;110412;1241;69723;-61
2024/02/18 04:05:51;;;;;;;;;;;;;;;2.91;100.00;98422.37;110385;1241;69840;-61
2024/02/18 04:08:19;;;;;;;;;;;;;;;2.91;100.00;98426.48;110356;1241;59715;-62
2024/02/18 04:10:48;;;;;;;;;;;;;;;2.87;100.00;98425.73;110394;1241;59675;-62
2024/02/18 04:13:17;;;;;;;;;;;;;;;2.80;100.00;98429.70;110401;1245;71175;-61
2024/02/18 04:15:45;;;;;;;;;;;;;;;2.80;100.00;98433.82;110422;1238;69024;-61
2024/02/18 04:18:15;;;;;;;;;;;;;;;2.80;100.00;98430.36;110411;1240;68521;-61
2024/02/18 04:20:44;;;;;;;;;;;;;;;2.81;100.00;98427.25;110457;1238;59734;-62
2024/02/18 04:23:12;;;;;;;;;;;;;;;2.83;100.00;98430.66;110508;1242;59749;-62
2024/02/18 04:25:41;;;;;;;;;;;;;;;2.88;100.00;98429.85;110454;1241;71320;-62
2024/02/18 04:28:10;;;;;;;;;;;;;;;2.90;100.00;98434.44;110531;1238;68607;-62
2024/02/18 04:30:38;;;;;;;;;;;;;;;2.92;100.00;98435.59;110484;1243;69155;-61
2024/02/18 04:33:07;;;;;;;;;;;;;;;2.93;100.00;98434.71;110399;1242;59721;-62
2024/02/18 04:35:36;;;;;;;;;;;;;;;2.94;100.00;98434.16;110449;1240;59640;-62
2024/02/18 04:38:06;;;;;;;;;;;;;;;2.93;100.00;98434.36;110449;1241;72182;-61
2024/02/18 04:40:35;;;;;;;;;;;;;;;2.93;100.00;98435.05;110462;1241;69826;-62
2024/02/18 04:43:04;;;;;;;;;;;;;;;2.94;100.00;98432.42;110486;1241;69277;-62
2024/02/18 04:45:33;;;;;;;;;;;;;;;2.95;100.00;98428.98;110453;1239;59763;-62
2024/02/18 04:48:02;;;;;;;;;;;;;;;2.98;100.00;98431.14;110415;1238;59689;-61
2024/02/18 04:50:31;;;;;;;;;;;;;;;2.98;100.00;98432.66;110401;1241;71484;-61
2024/02/18 04:53:00;;;;;;;;;;;;;;;2.99;100.00;98429.52;110445;1239;69045;-61
2024/02/18 04:55:29;;;;;;;;;;;;;;;2.96;100.00;98427.22;110375;1243;69248;-62
2024/02/18 04:57:58;;;;;;;;;;;;;;;2.95;100.00;98427.92;110370;1242;59748;-61
2024/02/18 05:00:27;;;;;;;;;;;;;;;2.94;100.00;98421.74;110219;1242;59750;-61
2024/02/18 05:02:56;;;;;;;;;;;;;;;2.93;100.00;98430.23;110373;1238;71280;-62
2024/02/18 05:05:25;;;;;;;;;;;;;;;2.88;100.00;98432.78;110411;1242;69464;-61
2024/02/18 05:07:53;;;;;;;;;;;;;;;2.85;100.00;98433.70;110391;1240;69246;-61
2024/02/18 05:10:22;;;;;;;;;;;;;;;2.83;100.00;98437.89;110394;1241;59727;-62
2024/02/18 05:12:50;;;;;;;;;;;;;;;2.79;100.00;98435.92;110379;1241;59675;-61
2024/02/18 05:15:19;;;;;;;;;;;;;;;2.77;100.00;98436.48;110407;1241;71352;-61
2024/02/18 05:17:48;;;;;;;;;;;;;;;2.76;100.00;98434.78;110474;1241;69748;-62
2024/02/18 05:20:17;;;;;;;;;;;;;;;2.75;100.00;98438.09;110429;1242;70935;-62
2024/02/18 05:22:46;;;;;;;;;;;;;;;2.72;100.00;98437.98;110381;1241;59709;-61
2024/02/18 05:25:15;;;;;;;;;;;;;;;2.69;100.00;98438.59;110348;1241;59676;-62
2024/02/18 05:27:43;;;;;;;;;;;;;;;2.65;100.00;98440.41;110435;1246;71164;-62
2024/02/18 05:30:13;;;;;;;;;;;;;;;2.63;100.00;98440.13;110399;1240;68606;-61
2024/02/18 05:32:41;;;;;;;;;;;;;;;2.61;100.00;98438.27;110371;1241;68199;-61
2024/02/18 05:35:10;;;;;;;;;;;;;;;2.62;100.00;98439.60;110410;1241;59688;-61
2024/02/18 05:37:40;;;;;;;;;;;;;;;2.63;100.00;98443.02;110234;1244;59685;-62
2024/02/18 05:40:09;;;;;;;;;;;;;;;2.61;100.00;98443.27;110394;1240;71156;-61
2024/02/18 05:42:38;;;;;;;;;;;;;;;2.59;100.00;98446.05;110390;1242;69093;-61
2024/02/18 05:45:08;;;;;;;;;;;;;;;2.59;100.00;98451.73;110448;1238;69841;-62
2024/02/18 05:47:37;;;;;;;;;;;;;;;2.58;100.00;98452.80;110425;1240;59759;-61
2024/02/18 05:50:06;;;;;;;;;;;;;;;2.57;100.00;98454.71;110586;1238;59666;-62
2024/02/18 05:52:35;;;;;;;;;;;;;;;2.61;100.00;98457.04;110424;1240;71096;-61
2024/02/18 05:55:04;;;;;;;;;;;;;;;2.64;100.00;98459.72;110404;1240;69079;-62
2024/02/18 05:57:32;;;;;;;;;;;;;;;2.66;100.00;98462.92;110382;1243;69810;-61
2024/02/18 06:00:01;;;;;;;;;;;;;;;2.68;100.00;98468.21;110418;1240;59653;-62
2024/02/18 06:02:31;;;;;;;;;;;;;;;2.71;100.00;98473.83;110480;1241;59663;-62
2024/02/18 06:05:00;;;;;;;;;;;;;;;2.72;100.00;98476.89;110581;1242;71784;-61
2024/02/18 06:07:30;;;;;;;;;;;;;;;2.74;100.00;98478.41;110570;1241;69418;-61
2024/02/18 06:09:59;;;;;;;;;;;;;;;2.78;100.00;98482.09;110390;1238;69584;-62
2024/02/18 06:12:28;;;;;;;;;;;;;;;2.81;100.00;98488.89;110393;1240;59795;-61
2024/02/18 06:14:57;;;;;;;;;;;;;;;2.86;100.00;98487.07;110563;1240;59744;-61
2024/02/18 06:17:25;;;;;;;;;;;;;;;2.88;100.00;98489.93;109921;1238;755084;-61
2024/02/18 06:19:55;;;;;;;;;;;;;;;2.90;100.00;98494.19;110579;1240;69063;-61
2024/02/18 06:22:24;;;;;;;;;;;;;;;2.92;100.00;98493.29;110512;1238;68763;-61
2024/02/18 06:24:53;;;;;;;;;;;;;;;2.94;100.00;98495.96;110495;1238;59700;-61
2024/02/18 06:27:22;;;;;;;;;;;;;;;2.97;100.00;98496.24;110372;1238;59658;-62
2024/02/18 06:29:51;;;;;;;;;;;;;;;3.01;100.00;98497.54;110419;1238;71371;-62
2024/02/18 06:32:20;;;;;;;;;;;;;;;3.03;100.00;98500.58;110359;1242;69059;-61
2024/02/18 06:34:49;;;;;;;;;;;;;;;3.05;100.00;98503.45;110329;1240;69277;-61
2024/02/18 06:37:18;;;;;;;;;;;;;;;3.10;100.00;98509.02;110381;1241;59744;-61
2024/02/18 06:39:47;;;;;;;;;;;;;;;3.14;100.00;98510.30;110382;1238;59672;-61
2024/02/18 06:42:16;;;;;;;;;;;;;;;3.18;100.00;98505.89;110397;1240;71333;-61
2024/02/18 06:44:44;;;;;;;;;;;;;;;3.22;100.00;98502.17;110412;1241;70014;-64
2024/02/18 06:47:14;;;;;;;;;;;;;;;3.26;100.00;98504.79;110605;1240;69900;-61
2024/02/18 06:49:43;;;;;;;;;;;;;;;3.30;100.00;98511.08;110517;1238;60146;-61
2024/02/18 06:52:13;;;;;;;;;;;;;;;3.35;100.00;98510.26;110448;1240;59622;-62
2024/02/18 06:54:43;;;;;;;;;;;;;;;3.40;100.00;98508.06;110557;1241;72075;-61
2024/02/18 06:57:12;;;;;;;;;;;;;;;3.44;100.00;98505.73;110487;1238;69286;-61
2024/02/18 06:59:42;;;;;;;;;;;;;;;3.48;100.00;98508.38;110378;1240;68858;-61
2024/02/18 07:02:10;;;;;;;;;;;;;;;3.51;100.00;98512.61;110434;1241;59734;-61
2024/02/18 07:04:39;;;;;;;;;;;;;;;3.54;100.00;98508.88;110447;1241;59627;-62
2024/02/18 07:07:08;;;;;;;;;;;;;;;3.59;100.00;98513.23;110531;1238;70943;-61
2024/02/18 07:09:37;;;;;;;;;;;;;;;3.62;100.00;98514.55;110559;1238;69141;-61
2024/02/18 07:12:06;;;;;;;;;;;;;;;3.66;100.00;98517.54;110533;1240;70302;-61
2024/02/18 07:14:36;;;;;;;;;;;;;;;3.73;100.00;98520.80;110511;1240;59681;-61
2024/02/18 07:17:04;;;;;;;;;;;;;;;3.77;100.00;98519.48;110497;1241;59685;-61
2024/02/18 07:19:33;;;;;;;;;;;;;;;3.80;100.00;98516.81;110391;1240;71976;-61
2024/02/18 07:22:02;;;;;;;;;;;;;;;3.81;100.00;98516.09;110422;1240;69828;-61
2024/02/18 07:24:31;;;;;;;;;;;;;;;3.85;100.00;98516.31;110371;1238;70088;-61
2024/02/18 07:27:00;;;;;;;;;;;;;;;3.87;100.00;98519.69;110426;1241;59763;-61
2024/02/18 07:29:28;;;;;;;;;;;;;;;3.92;100.00;98519.39;110441;1238;59644;-61
2024/02/18 07:31:57;;;;;;;;;;;;;;;3.92;100.00;98520.58;110401;1239;71658;-61
2024/02/18 07:34:26;;;;;;;;;;;;;;;3.96;100.00;98522.22;110451;1238;67657;-61
2024/02/18 07:36:54;;;;;;;;;;;;;;;4.01;100.00;98525.86;110415;1242;69233;-61
2024/02/18 07:39:24;;;;;;;;;;;;;;;4.06;100.00;98527.96;110452;1238;59746;-61
2024/02/18 07:41:53;;;;;;;;;;;;;;;4.02;100.00;98526.36;110434;1241;59683;-61
2024/02/18 07:44:21;;;;;;;;;;;;;;;4.05;100.00;98526.44;110480;1241;72055;-61
2024/02/18 07:46:53;;;;;;;;;;;;;;;4.09;100.00;98530.65;110392;1241;69736;-61
2024/02/18 07:49:23;;;;;;;;;;;;;;;4.16;100.00;98527.34;110375;1247;69129;-61
2024/02/18 07:51:52;;;;;;;;;;;;;;;4.20;100.00;98525.83;110351;1241;59746;-61
2024/02/18 07:54:21;;;;;;;;;;;;;;;4.22;100.00;98524.21;110391;1240;59659;-61
2024/02/18 07:56:51;;;;;;;;;;;;;;;4.30;100.00;98531.23;110473;1241;70727;-61
2024/02/18 07:59:21;;;;;;;;;;;;;;;4.36;100.00;98535.04;110393;1242;69841;-61
2024/02/18 08:01:50;;;;;;;;;;;;;;;4.38;100.00;98532.55;110387;1238;70055;-61
2024/02/18 08:04:19;;;;;;;;;;;;;;;4.42;100.00;98533.13;110375;1240;59666;-61
2024/02/18 08:06:50;;;;;;;;;;;;;;;4.42;100.00;98535.34;110378;1241;59657;-61
2024/02/18 08:09:20;;;;;;;;;;;;;;;4.45;100.00;98537.16;110367;1241;70816;-61
2024/02/18 08:11:49;;;;;;;;;;;;;;;4.50;100.00;98534.43;110318;1241;69211;-61
2024/02/18 08:14:18;;;;;;;;;;;;;;;4.53;100.00;98533.46;110324;1240;69129;-61
2024/02/18 08:16:46;;;;;;;;;;;;;;;4.55;100.00;98530.63;110319;1241;59732;-61
2024/02/18 08:19:15;;;;;;;;;;;;;;;4.59;100.00;98530.00;110390;1240;59715;-61
2024/02/18 08:21:44;;;;;;;;;;;;;;;4.59;100.00;98532.59;110396;1242;70221;-61
2024/02/18 08:24:14;;;;;;;;;;;;;;;4.60;100.00;98537.23;110325;1241;69025;-61
2024/02/18 08:26:42;;;;;;;;;;;;;;;4.64;100.00;98541.77;110332;1241;69930;-61
2024/02/18 08:29:11;;;;;;;;;;;;;;;4.67;100.00;98541.86;110350;1239;59748;-61
2024/02/18 08:31:40;;;;;;;;;;;;;;;4.73;100.00;98543.39;110388;1241;59674;-61
2024/02/18 08:34:11;;;;;;;;;;;;;;;4.80;100.00;98543.67;110383;1239;71353;-61
2024/02/18 08:36:40;;;;;;;;;;;;;;;4.85;100.00;98544.03;110396;1240;69305;-61
2024/02/18 08:39:09;;;;;;;;;;;;;;;4.90;100.00;98540.10;110316;1241;69828;-61
2024/02/18 08:41:38;;;;;;;;;;;;;;;4.92;100.00;98538.80;110321;1247;60083;-61
2024/02/18 08:44:07;;;;;;;;;;;;;;;4.95;100.00;98535.25;110350;1242;59672;-61
2024/02/18 08:46:35;;;;;;;;;;;;;;;4.98;100.00;98536.55;110332;1240;71420;-61
2024/02/18 08:49:06;;;;;;;;;;;;;;;5.01;100.00;98539.89;110335;1241;68463;-61
2024/02/18 08:51:38;;;;;;;;;;;;;;;5.01;100.00;98541.45;110311;1241;68275;-61
2024/02/18 08:54:08;;;;;;;;;;;;;;;4.94;100.00;98545.30;110317;1241;59627;-61
2024/02/18 08:56:37;;;;;;;;;;;;;;;4.95;100.00;98551.67;110263;1243;59679;-61
2024/02/18 08:59:06;;;;;;;;;;;;;;;4.95;100.00;98544.94;110375;1241;71476;-61
2024/02/18 09:01:35;;;;;;;;;;;;;;;5.03;100.00;98537.92;110346;1241;68753;-62
2024/02/18 09:04:06;;;;;;;;;;;;;;;5.11;100.00;98537.34;110366;1241;69130;-61
2024/02/18 09:06:35;;;;;;;;;;;;;;;5.20;100.00;98539.30;110372;1241;59654;-61
2024/02/18 09:09:03;;;;;;;;;;;;;;;5.24;100.00;98541.75;110452;1241;59660;-61
2024/02/18 09:11:32;;;;;;;;;;;;;;;5.30;100.00;98542.76;110376;1241;71980;-61
2024/02/18 09:14:01;;;;;;;;;;;;;;;5.34;100.00;98545.55;110390;1241;69558;-61
2024/02/18 09:16:30;;;;;;;;;;;;;;;5.39;100.00;98544.33;110359;1238;68384;-61
2024/02/18 09:18:58;;;;;;;;;;;;;;;5.47;100.00;98545.80;110409;1240;59725;-61
2024/02/18 09:21:27;;;;;;;;;;;;;;;5.49;100.00;98538.45;110371;1241;59705;-61
2024/02/18 09:23:56;;;;;;;;;;;;;;;5.48;100.00;98535.90;110369;1240;71614;-61
2024/02/18 09:26:25;;;;;;;;;;;;;;;5.52;100.00;98535.23;110374;1238;69215;-61
2024/02/18 09:28:54;;;;;;;;;;;;;;;5.50;100.00;98538.25;110350;1242;70284;-61
2024/02/18 09:31:22;;;;;;;;;;;;;;;5.48;100.00;98546.13;110374;1241;59637;-61
2024/02/18 09:33:51;;;;;;;;;;;;;;;5.47;100.00;98546.50;110389;1241;59686;-61
2024/02/18 09:36:20;;;;;;;;;;;;;;;5.42;100.00;98543.91;110374;1238;71361;-61
2024/02/18 09:38:51;;;;;;;;;;;;;;;5.42;100.00;98545.80;110356;1239;70256;-63
2024/02/18 09:41:21;;;;;;;;;;;;;;;5.48;100.00;98537.98;110340;1241;69779;-60
2024/02/18 09:43:51;;;;;;;;;;;;;;;5.50;100.00;98536.17;110364;1242;59660;-60
2024/02/18 09:46:20;;;;;;;;;;;;;;;5.53;100.00;98537.83;110376;1238;59660;-63
2024/02/18 09:48:49;;;;;;;;;;;;;;;5.57;100.00;98548.56;110351;1238;72010;-62
2024/02/18 09:51:19;;;;;;;;;;;;;;;5.68;100.00;98551.81;110276;1242;69699;-63
2024/02/18 09:53:48;;;;;;;;;;;;;;;5.79;100.00;98552.31;110303;1244;68286;-61
2024/02/18 09:56:17;;;;;;;;;;;;;;;5.80;100.00;98553.80;110314;1241;59677;-61
2024/02/18 09:58:46;;;;;;;;;;;;;;;5.80;100.00;98553.98;110354;1239;59661;-61
2024/02/18 10:01:17;;;;;;;;;;;;;;;5.81;100.00;98551.88;110500;1239;71360;-61
2024/02/18 10:03:46;;;;;;;;;;;;;;;5.88;100.00;98549.23;110483;1239;69715;-61
2024/02/18 10:06:15;;;;;;;;;;;;;;;6.09;100.00;98545.70;110487;1239;69117;-61
2024/02/18 10:08:51;;;;;;;;;;;;;;;6.29;100.00;98548.08;110441;1238;59794;-61
2024/02/18 10:11:21;;;;;;;;;;;;;;;6.37;100.00;98544.66;110471;1238;59734;-61
2024/02/18 10:13:51;;;;;;;;;;;;;;;6.46;100.00;98541.91;110459;1239;72454;-62
2024/02/18 10:16:20;;;;;;;;;;;;;;;6.66;100.00;98537.67;110440;1239;68185;-62
2024/02/18 10:18:49;;;;;;;;;;;;;;;6.73;100.00;98535.50;110466;1239;68822;-62
2024/02/18 10:21:18;;;;;;;;;;;;;;;6.80;100.00;98536.06;110513;1238;59735;-62
2024/02/18 10:23:47;;;;;;;;;;;;;;;6.76;100.00;98537.27;110448;1239;59670;-62
2024/02/18 10:26:15;;;;;;;;;;;;;;;6.90;100.00;98536.55;110438;1239;71865;-62
2024/02/18 10:28:44;;;;;;;;;;;;;;;6.83;100.00;98540.30;110485;1239;69833;-62
2024/02/18 10:31:13;;;;;;;;;;;;;;;6.84;100.00;98539.55;110460;1239;69092;-61
2024/02/18 10:33:42;;;;;;;;;;;;;;;6.60;100.00;98539.98;110474;1240;59786;-62
2024/02/18 10:36:12;;;;;;;;;;;;;;;6.37;100.00;98542.09;110464;1239;59671;-62
2024/02/18 10:38:45;;;;;;;;;;;;;;;6.38;100.00;98541.68;110486;1239;71591;-62
2024/02/18 10:41:19;;;;;;;;;;;;;;;6.44;100.00;98538.52;110480;1238;69129;-62
2024/02/18 10:43:51;;;;;;;;;;;;;;;6.43;100.00;98536.10;110280;1241;70232;-62
2024/02/18 10:46:23;;;;;;;;;;;;;;;6.65;100.00;98530.80;110430;1239;59667;-62
2024/02/18 10:48:53;;;;;;;;;;;;;;;6.82;100.00;98528.38;110483;1246;59681;-62
2024/02/18 10:51:34;;;;;;;;;;;;;;;6.96;100.00;98527.30;110466;1239;71792;-62
2024/02/18 10:54:08;;;;;;;;;;;;;;;7.03;100.00;98525.27;110510;1238;68346;-62
2024/02/18 10:56:40;;;;;;;;;;;;;;;7.12;100.00;98524.55;110525;1238;69786;-61
2024/02/18 10:59:16;;;;;;;;;;;;;;;7.15;100.00;98519.91;110507;1239;59746;-61
2024/02/18 11:01:55;;;;;;;;;;;;;;;7.19;100.00;98518.06;110517;1237;59696;-61
2024/02/18 11:04:25;;;;;;;;;;;;;;;7.27;100.00;98514.05;110504;1239;71163;-60
2024/02/18 11:06:54;;;;;;;;;;;;;;;7.45;100.00;98514.34;110648;1239;69709;-61
2024/02/18 11:09:24;;;;;;;;;;;;;;;7.49;100.00;98512.59;110619;1239;69288;-62
2024/02/18 11:11:53;;;;;;;;;;;;;;;7.43;100.00;98514.93;110601;1238;59726;-62
2024/02/18 11:14:23;;;;;;;;;;;;;;;7.43;100.00;98513.89;110575;1240;60075;-62
2024/02/18 11:16:53;;;;;;;;;;;;;;;7.45;100.00;98512.25;110521;1239;71178;-63
2024/02/18 11:19:22;;;;;;;;;;;;;;;7.43;100.00;98513.39;110478;1238;68874;-62
2024/02/18 11:21:52;;;;;;;;;;;;;;;7.36;100.00;98515.59;110495;1239;67604;-62
2024/02/18 11:24:23;;;;;;;;;;;;;;;7.37;100.00;98512.08;110468;1238;59684;-62
2024/02/18 11:26:52;;;;;;;;;;;;;;;7.35;100.00;98514.38;110510;1237;59659;-62
2024/02/18 11:29:21;;;;;;;;;;;;;;;7.29;100.00;98516.95;110512;1238;71965;-63
2024/02/18 11:31:51;;;;;;;;;;;;;;;7.24;100.00;98516.61;110470;1239;69813;-62
2024/02/18 11:34:19;;;;;;;;;;;;;;;7.31;100.00;98515.65;110474;1239;68309;-62
2024/02/18 11:36:48;;;;;;;;;;;;;;;7.26;100.00;98518.08;110449;1238;59754;-62
2024/02/18 11:39:17;;;;;;;;;;;;;;;7.29;100.00;98514.83;110491;1239;59685;-62
2024/02/18 11:41:49;;;;;;;;;;;;;;;7.39;100.00;98513.18;110490;1239;71374;-62
2024/02/18 11:44:18;;;;;;;;;;;;;;;7.41;100.00;98511.36;110510;1238;68150;-62
2024/02/18 11:46:49;;;;;;;;;;;;;;;7.46;100.00;98509.77;110499;1239;69957;-61
2024/02/18 11:49:19;;;;;;;;;;;;;;;7.44;100.00;98507.42;110487;1246;59751;-62
2024/02/18 11:51:48;;;;;;;;;;;;;;;7.53;100.00;98506.00;110558;1239;59747;-62
2024/02/18 11:54:17;;;;;;;;;;;;;;;7.60;100.00;98504.30;110477;1237;71443;-62
2024/02/18 11:56:46;;;;;;;;;;;;;;;7.67;100.00;98508.19;110475;1239;70136;-62
2024/02/18 11:59:15;;;;;;;;;;;;;;;7.80;100.00;98507.08;110478;1238;69913;-61
2024/02/18 12:01:44;;;;;;;;;;;;;;;8.10;100.00;98502.30;110430;1239;59767;-61
2024/02/18 12:04:13;;;;;;;;;;;;;;;8.33;100.00;98499.34;110513;1239;59670;-62
2024/02/18 12:06:42;;;;;;;;;;;;;;;8.62;100.00;98496.23;110502;1238;70921;-62
2024/02/18 12:09:16;;;;;;;;;;;;;;;9.05;100.00;98491.34;110482;1238;69198;-62
2024/02/18 12:11:47;;;;;;;;;;;;;;;9.31;100.00;98489.00;110538;1238;69953;-62
2024/02/18 12:14:20;;;;;;;;;;;;;;;9.55;100.00;98494.38;110599;1239;59698;-62
2024/02/18 12:16:50;;;;;;;;;;;;;;;9.70;100.00;98496.21;110546;1238;59672;-62
2024/02/18 12:19:19;;;;;;;;;;;;;;;9.72;100.00;98490.75;110517;1239;71979;-63
2024/02/18 12:21:55;;;;;;;;;;;;;;;9.84;100.00;98484.55;110473;1239;68519;-62
2024/02/18 12:24:24;;;;;;;;;;;;;;;9.98;100.00;98475.10;110435;1239;69702;-62
2024/02/18 12:26:53;;;;;;;;;;;;;;;10.46;100.00;98471.61;110383;1241;59789;-63
2024/02/18 12:29:21;;;;;;;;;;;;;;;11.24;100.00;98467.52;110455;1239;59674;-62
2024/02/18 12:31:50;;;;;;;;;;;;;;;11.60;99.65;98469.40;110452;1239;71391;-62
2024/02/18 12:34:19;;;;;;;;;;;;;;;11.69;99.02;98468.88;110512;1239;69770;-62
2024/02/18 12:36:49;;;;;;;;;;;;;;;11.79;99.10;98467.03;110535;1239;69883;-62
2024/02/18 12:39:18;;;;;;;;;;;;;;;11.74;99.83;98465.96;110451;1239;60011;-61
2024/02/18 12:41:47;;;;;;;;;;;;;;;11.49;100.00;98462.57;110522;1239;59682;-61
2024/02/18 12:44:15;;;;;;;;;;;;;;;11.38;100.00;98465.16;110470;1239;70886;-61
2024/02/18 12:47:04;;;;;;;;;;;;;;;11.06;100.00;98462.12;110473;1238;69019;-61